createdAt,value
2019-01-09T00:00:13.116Z,3.83
2019-01-09T00:02:42.000Z,8.73
2019-01-09T00:05:11.357Z,5.97
2019-01-09T00:07:40.239Z,8.37
2019-01-09T00:10:09.143Z,5.13
2019-01-09T00:12:38.804Z,4.47
2019-01-09T00:15:08.323Z,5.20
2019-01-09T00:17:37.209Z,7.23
2019-01-09T00:20:06.201Z,6.23
2019-01-09T00:22:35.108Z,3.23
2019-01-09T00:25:04.403Z,7.50
2019-01-09T00:27:34.469Z,2.97
2019-01-09T00:30:03.369Z,6.70
2019-01-09T00:32:32.289Z,3.43
2019-01-09T00:35:01.186Z,7.47
2019-01-09T00:37:30.109Z,7.80
2019-01-09T00:39:59.020Z,7.73
2019-01-09T00:42:28.291Z,4.77
2019-01-09T00:44:57.212Z,2.17
2019-01-09T00:47:26.148Z,3.00
2019-01-09T00:49:55.532Z,4.20
2019-01-09T00:52:24.420Z,4.10
2019-01-09T00:54:53.310Z,11.33
2019-01-09T00:57:22.189Z,4.10
2019-01-09T00:59:51.470Z,7.50
2019-01-09T01:02:27.101Z,3.17
2019-01-09T01:05:13.760Z,3.13
2019-01-09T01:08:00.648Z,4.73
2019-01-09T01:11:03.623Z,5.57
2019-01-09T01:13:51.633Z,5.43
2019-01-09T01:16:38.440Z,3.17
2019-01-09T01:19:25.380Z,4.10
2019-01-09T01:21:57.211Z,4.93
2019-01-09T01:24:47.949Z,6.23
2019-01-09T01:27:19.628Z,3.73
2019-01-09T01:30:13.480Z,4.20
2019-01-09T01:33:00.127Z,6.77
2019-01-09T01:35:54.469Z,4.23
2019-01-09T01:38:35.293Z,4.83
2019-01-09T01:41:14.602Z,4.83
2019-01-09T01:44:12.523Z,7.20
2019-01-09T01:47:00.489Z,4.93
2019-01-09T01:49:47.357Z,3.37
2019-01-09T01:52:38.125Z,4.43
2019-01-09T01:55:31.021Z,4.47
2019-01-09T01:58:14.739Z,5.20
2019-01-09T02:01:14.980Z,2.37
2019-01-09T02:07:12.133Z,2.53
2019-01-09T02:16:19.917Z,4.57
2019-01-09T02:18:54.596Z,4.60
2019-01-09T02:21:51.060Z,6.70
2019-01-09T02:24:48.155Z,7.00
2019-01-09T02:27:26.201Z,7.37
2019-01-09T02:30:14.176Z,6.53
2019-01-09T02:32:43.087Z,12.17
2019-01-09T02:35:11.956Z,6.00
2019-01-09T02:37:41.642Z,4.73
2019-01-09T02:40:10.870Z,6.70
2019-01-09T02:42:40.169Z,4.67
2019-01-09T02:45:09.080Z,5.70
2019-01-09T02:47:37.951Z,8.90
2019-01-09T02:50:08.292Z,7.03
2019-01-09T02:53:01.234Z,3.27
2019-01-09T02:55:30.163Z,3.47
2019-01-09T02:57:59.085Z,7.60
2019-01-09T03:00:46.982Z,3.60
2019-01-09T03:03:15.852Z,6.57
2019-01-09T03:05:44.773Z,6.70
2019-01-09T03:08:13.697Z,8.10
2019-01-09T03:10:50.025Z,3.70
2019-01-09T03:13:19.376Z,3.40
2019-01-09T03:15:48.716Z,4.20
2019-01-09T03:18:17.695Z,3.97
2019-01-09T03:20:47.368Z,2.80
2019-01-09T03:26:48.339Z,2.80
2019-01-09T03:29:17.253Z,9.27
2019-01-09T03:31:46.184Z,2.63
2019-01-09T03:34:15.051Z,4.20
2019-01-09T03:36:43.925Z,3.10
2019-01-09T03:45:48.754Z,2.43
2019-01-09T03:48:18.472Z,8.70
2019-01-09T03:50:47.744Z,3.67
2019-01-09T03:53:16.681Z,4.20
2019-01-09T03:55:45.975Z,6.07
2019-01-09T03:58:15.673Z,3.00
2019-01-09T04:00:44.578Z,4.23
2019-01-09T04:03:13.450Z,3.60
2019-01-09T04:05:42.686Z,3.13
2019-01-09T04:08:12.373Z,4.90
2019-01-09T04:10:41.251Z,4.00
2019-01-09T04:16:20.376Z,2.57
2019-01-09T04:18:49.290Z,3.53
2019-01-09T04:21:18.294Z,2.57
2019-01-09T04:23:47.584Z,1.93
2019-01-09T04:29:36.973Z,4.83
2019-01-09T04:32:05.877Z,4.83
2019-01-09T04:37:57.757Z,4.20
2019-01-09T04:40:27.078Z,4.50
2019-01-09T04:42:55.955Z,4.83
2019-01-09T04:46:01.012Z,2.80
2019-01-09T04:48:30.245Z,3.00
2019-01-09T04:50:59.234Z,5.00
2019-01-09T04:53:28.115Z,4.23
2019-01-09T04:55:57.327Z,3.30
2019-01-09T04:58:26.525Z,2.77
2019-01-09T05:00:55.508Z,2.87
2019-01-09T05:06:47.258Z,4.50
2019-01-09T05:09:16.164Z,5.20
2019-01-09T05:11:47.649Z,6.70
2019-01-09T05:14:16.948Z,5.20
2019-01-09T05:16:45.842Z,3.13
2019-01-09T05:19:15.095Z,4.90
2019-01-09T05:21:44.008Z,6.10
2019-01-09T05:24:12.882Z,7.53
2019-01-09T05:26:41.758Z,2.90
2019-01-09T05:29:10.663Z,5.13
2019-01-09T05:31:39.925Z,3.27
2019-01-09T05:34:08.793Z,3.97
2019-01-09T05:36:37.721Z,7.77
2019-01-09T05:39:21.165Z,4.67
2019-01-09T05:42:01.610Z,8.10
2019-01-09T05:44:30.513Z,12.80
2019-01-09T05:50:02.910Z,4.37
2019-01-09T05:52:32.136Z,8.53
2019-01-09T05:55:01.042Z,2.33
2019-01-09T05:57:29.946Z,11.97
2019-01-09T05:59:58.799Z,5.60
2019-01-09T06:02:27.978Z,8.30
2019-01-09T06:04:57.352Z,4.13
2019-01-09T06:07:26.257Z,4.23
2019-01-09T06:09:55.175Z,5.13
2019-01-09T06:12:29.306Z,8.23
2019-01-09T06:14:58.171Z,8.60
2019-01-09T06:17:27.471Z,5.47
2019-01-09T06:19:56.384Z,10.13
2019-01-09T06:22:25.301Z,4.07
2019-01-09T06:28:06.152Z,5.30
2019-01-09T06:30:35.019Z,4.47
2019-01-09T06:33:03.955Z,3.03
2019-01-09T06:35:32.909Z,1.23
2019-01-09T06:38:02.111Z,2.87
2019-01-09T06:40:31.012Z,1.07
2019-01-09T06:42:59.938Z,0.50
2019-01-09T06:45:29.191Z,0.93
2019-01-09T06:47:58.099Z,0.57
2019-01-09T06:50:35.053Z,2.10
2019-01-09T06:53:10.617Z,3.80
2019-01-09T06:56:13.294Z,6.40
2019-01-09T06:58:42.294Z,0.93
2019-01-09T07:01:11.179Z,0.70
2019-01-09T07:03:49.394Z,1.17
2019-01-09T07:06:18.688Z,0.87
2019-01-09T07:08:47.695Z,2.10
2019-01-09T07:11:16.996Z,0.50
2019-01-09T07:14:02.156Z,1.23
2019-01-09T07:16:31.100Z,0.70
2019-01-09T07:19:00.390Z,0.70
2019-01-09T07:21:29.240Z,0.70
2019-01-09T07:23:58.150Z,1.60
2019-01-09T07:26:27.037Z,1.47
2019-01-09T07:28:56.310Z,1.93
2019-01-09T07:31:25.215Z,4.60
2019-01-09T07:33:54.142Z,2.27
2019-01-09T07:36:23.509Z,6.63
2019-01-09T07:38:52.410Z,8.23
2019-01-09T07:41:21.311Z,9.20
2019-01-09T07:43:50.475Z,4.37
2019-01-09T07:46:19.374Z,8.60
2019-01-09T07:49:12.884Z,6.40
2019-01-09T07:51:41.766Z,8.20
2019-01-09T07:54:10.647Z,4.40
2019-01-09T07:56:39.510Z,8.60
2019-01-09T07:59:08.496Z,6.03
2019-01-09T08:01:37.473Z,7.60
2019-01-09T08:04:06.315Z,6.93
2019-01-09T08:06:35.266Z,5.73
2019-01-09T08:09:11.572Z,7.13
2019-01-09T08:11:40.932Z,12.27
2019-01-09T08:14:09.830Z,5.80
2019-01-09T08:16:40.119Z,8.77
2019-01-09T08:19:09.412Z,5.83
2019-01-09T08:21:38.984Z,10.23
2019-01-09T08:24:07.870Z,9.37
2019-01-09T08:26:36.946Z,3.10
2019-01-09T08:29:05.859Z,7.80
2019-01-09T08:31:34.734Z,4.57
2019-01-09T08:34:09.766Z,5.53
2019-01-09T08:36:38.743Z,6.93
2019-01-09T08:39:07.734Z,7.40
2019-01-09T08:41:37.456Z,2.27
2019-01-09T08:44:07.061Z,2.27
2019-01-09T08:46:36.697Z,2.50
2019-01-09T08:49:05.987Z,2.30
2019-01-09T08:51:34.882Z,3.33
2019-01-09T08:54:04.156Z,1.93
2019-01-09T08:56:45.697Z,5.87
2019-01-09T08:59:14.866Z,5.20
2019-01-09T09:01:43.784Z,2.40
2019-01-09T09:04:13.026Z,3.30
2019-01-09T09:06:42.671Z,3.73
2019-01-09T09:09:11.863Z,3.73
2019-01-09T09:11:41.242Z,6.20
2019-01-09T09:14:22.293Z,3.07
2019-01-09T09:16:51.207Z,6.57
2019-01-09T09:19:20.127Z,5.00
2019-01-09T09:21:49.409Z,5.70
2019-01-09T09:24:18.743Z,5.90
2019-01-09T09:26:47.655Z,4.93
2019-01-09T09:29:16.528Z,6.40
2019-01-09T09:31:45.434Z,3.33
2019-01-09T09:34:14.767Z,8.30
2019-01-09T09:36:43.657Z,5.90
2019-01-09T09:39:12.589Z,3.20
2019-01-09T09:41:41.521Z,5.83
2019-01-09T09:44:10.431Z,5.57
2019-01-09T09:46:39.383Z,3.20
2019-01-09T09:49:08.264Z,11.80
2019-01-09T09:51:37.153Z,10.40
2019-01-09T09:54:06.408Z,5.50
2019-01-09T09:56:35.641Z,5.20
2019-01-09T09:59:04.519Z,6.73
2019-01-09T10:01:33.440Z,5.80
2019-01-09T10:04:03.089Z,3.70
2019-01-09T10:06:32.302Z,9.77
2019-01-09T10:09:01.564Z,5.30
2019-01-09T10:11:30.902Z,7.37
2019-01-09T10:13:59.828Z,6.43
2019-01-09T10:16:28.733Z,7.73
2019-01-09T10:18:57.988Z,5.23
2019-01-09T10:21:27.420Z,4.37
2019-01-09T10:23:56.352Z,2.70
2019-01-09T10:26:25.225Z,5.87
2019-01-09T10:28:55.142Z,5.27
2019-01-09T10:31:24.444Z,5.57
2019-01-09T10:33:53.462Z,6.40
2019-01-09T10:36:22.354Z,4.97
2019-01-09T10:39:30.986Z,10.03
2019-01-09T10:41:59.866Z,3.20
2019-01-09T10:44:29.189Z,2.20
2019-01-09T10:46:59.150Z,6.83
2019-01-09T10:49:28.038Z,2.40
2019-01-09T10:51:57.286Z,4.97
2019-01-09T10:54:29.111Z,7.73
2019-01-09T10:56:57.967Z,3.60
2019-01-09T10:59:27.241Z,9.30
2019-01-09T11:02:02.708Z,4.30
2019-01-09T11:07:54.586Z,6.10
2019-01-09T11:10:23.507Z,12.87
2019-01-09T11:12:52.393Z,4.07
2019-01-09T11:15:21.319Z,2.90
2019-01-09T11:17:50.696Z,2.17
2019-01-09T11:20:20.815Z,4.40
2019-01-09T11:22:50.098Z,5.93
2019-01-09T11:25:30.780Z,3.90
2019-01-09T11:27:59.795Z,5.63
2019-01-09T11:30:37.715Z,4.70
2019-01-09T11:33:06.627Z,6.03
2019-01-09T11:35:35.873Z,5.43
2019-01-09T11:38:04.777Z,6.33
2019-01-09T11:40:42.211Z,6.30
2019-01-09T11:43:11.134Z,3.13
2019-01-09T11:45:40.062Z,8.33
2019-01-09T11:48:09.805Z,9.00
2019-01-09T11:50:39.039Z,10.87
2019-01-09T11:53:08.280Z,3.50
2019-01-09T11:55:37.223Z,6.57
2019-01-09T11:58:06.627Z,7.93
2019-01-09T12:00:35.832Z,5.53
2019-01-09T12:03:16.954Z,5.67
2019-01-09T12:05:46.258Z,5.70
2019-01-09T12:08:15.640Z,5.17
2019-01-09T12:10:44.967Z,9.90
2019-01-09T12:13:14.879Z,5.83
2019-01-09T12:15:44.180Z,4.93
2019-01-09T12:18:13.571Z,5.37
2019-01-09T12:20:47.021Z,4.00
2019-01-09T12:23:15.916Z,13.23
2019-01-09T12:25:44.823Z,6.43
2019-01-09T12:28:13.705Z,3.67
2019-01-09T12:30:56.873Z,4.10
2019-01-09T12:33:35.571Z,4.30
2019-01-09T12:36:25.165Z,6.90
2019-01-09T12:38:54.432Z,4.73
2019-01-09T12:41:23.343Z,3.37
2019-01-09T12:43:52.294Z,8.90
2019-01-09T12:46:21.729Z,8.73
2019-01-09T12:48:50.594Z,5.10
2019-01-09T12:51:19.518Z,5.90
2019-01-09T12:53:50.136Z,6.03
2019-01-09T12:56:34.392Z,5.27
2019-01-09T12:59:03.300Z,5.57
2019-01-09T13:01:32.961Z,4.20
2019-01-09T13:04:02.272Z,6.93
2019-01-09T13:06:31.174Z,6.27
2019-01-09T13:09:00.094Z,5.90
2019-01-09T13:11:29.082Z,6.10
2019-01-09T13:14:04.168Z,4.87
2019-01-09T13:16:33.144Z,6.53
2019-01-09T13:19:02.113Z,5.97
2019-01-09T13:21:31.400Z,5.20
2019-01-09T13:24:00.368Z,6.33
2019-01-09T13:26:48.603Z,6.80
2019-01-09T13:29:17.568Z,11.63
2019-01-09T13:31:46.448Z,5.90
2019-01-09T13:34:29.728Z,4.00
2019-01-09T13:36:59.131Z,3.80
2019-01-09T13:39:34.292Z,7.30
2019-01-09T13:42:03.594Z,4.40
2019-01-09T13:44:42.615Z,3.90
2019-01-09T13:47:16.684Z,4.50
2019-01-09T13:49:45.551Z,6.10
2019-01-09T13:52:14.803Z,4.73
2019-01-09T13:54:43.699Z,5.40
2019-01-09T13:57:12.613Z,10.80
2019-01-09T13:59:41.533Z,6.30
2019-01-09T14:02:10.575Z,6.87
2019-01-09T14:04:39.490Z,9.13
2019-01-09T14:07:29.729Z,7.83
2019-01-09T14:09:58.703Z,5.47
2019-01-09T14:12:40.852Z,3.87
2019-01-09T14:15:16.826Z,6.97
2019-01-09T14:17:46.076Z,4.70
2019-01-09T14:20:20.898Z,8.80
2019-01-09T14:22:49.831Z,7.63
2019-01-09T14:25:22.949Z,12.73
2019-01-09T14:27:52.237Z,8.73
2019-01-09T14:30:25.291Z,9.50
2019-01-09T14:32:54.476Z,8.70
2019-01-09T14:35:24.603Z,12.00
2019-01-09T14:37:53.902Z,8.07
2019-01-09T14:40:23.092Z,9.17
2019-01-09T14:43:11.021Z,12.43
2019-01-09T14:45:40.639Z,8.80
2019-01-09T14:48:09.981Z,6.43
2019-01-09T14:50:38.903Z,9.67
2019-01-09T14:53:38.339Z,8.40
2019-01-09T14:56:07.682Z,7.60
2019-01-09T14:58:36.607Z,8.13
2019-01-09T15:01:05.822Z,12.50
2019-01-09T15:03:41.328Z,13.50
2019-01-09T15:06:11.334Z,10.50
2019-01-09T15:08:40.705Z,9.53
2019-01-09T15:11:09.780Z,12.37
2019-01-09T15:13:38.615Z,8.60
2019-01-09T15:16:07.917Z,9.40
2019-01-09T15:18:49.384Z,12.27
2019-01-09T15:21:18.260Z,11.33
2019-01-09T15:23:47.309Z,8.77
2019-01-09T15:26:36.197Z,4.50
2019-01-09T15:29:05.413Z,6.23
2019-01-09T15:31:34.723Z,7.50
2019-01-09T15:34:03.654Z,2.97
2019-01-09T15:36:32.543Z,2.70
2019-01-09T15:39:02.604Z,6.00
2019-01-09T15:41:31.525Z,6.67
2019-01-09T15:44:15.021Z,5.43
2019-01-09T15:46:44.750Z,5.67
2019-01-09T15:49:14.143Z,7.10
2019-01-09T15:51:46.227Z,5.40
2019-01-09T15:54:15.162Z,7.27
2019-01-09T15:56:44.074Z,5.77
2019-01-09T15:59:12.984Z,4.70
2019-01-09T16:01:45.069Z,14.03
2019-01-09T16:04:32.122Z,5.73
2019-01-09T16:07:01.144Z,8.80
2019-01-09T16:09:30.071Z,9.63
2019-01-09T16:11:59.383Z,10.53
2019-01-09T16:14:28.824Z,6.93
2019-01-09T16:16:57.692Z,10.23
2019-01-09T16:19:26.987Z,9.83
2019-01-09T16:21:56.024Z,10.80
2019-01-09T16:24:24.899Z,9.73
2019-01-09T16:27:12.862Z,10.57
2019-01-09T16:29:41.838Z,6.00
2019-01-09T16:32:10.699Z,8.37
2019-01-09T16:34:39.617Z,8.87
2019-01-09T16:43:41.859Z,6.30
2019-01-09T16:46:39.516Z,8.30
2019-01-09T16:49:08.448Z,5.27
2019-01-09T16:51:37.699Z,9.27
2019-01-09T16:57:22.925Z,15.27
2019-01-09T16:59:52.385Z,8.27
2019-01-09T17:02:42.290Z,5.57
2019-01-09T17:05:20.205Z,9.43
2019-01-09T17:07:49.422Z,7.80
2019-01-09T17:10:18.409Z,9.20
2019-01-09T17:12:47.451Z,11.33
2019-01-09T17:15:16.450Z,9.13
2019-01-09T17:17:46.069Z,9.07
2019-01-09T17:20:16.655Z,13.20
2019-01-09T17:22:53.869Z,9.60
2019-01-09T17:25:22.790Z,9.90
2019-01-09T17:27:51.762Z,13.37
2019-01-09T17:30:23.540Z,10.73
2019-01-09T17:32:52.523Z,8.50
2019-01-09T17:35:21.413Z,6.42
2019-01-09T17:37:50.721Z,10.27
2019-01-09T17:40:19.645Z,12.33
2019-01-09T17:42:49.709Z,11.20
2019-01-09T17:45:18.600Z,9.63
2019-01-09T17:47:47.588Z,8.30
2019-01-09T17:50:24.102Z,11.50
2019-01-09T17:52:53.340Z,10.90
2019-01-09T17:55:22.683Z,7.70
2019-01-09T17:57:51.590Z,13.40
2019-01-09T18:00:21.808Z,11.43
2019-01-09T18:02:50.707Z,13.53
2019-01-09T18:05:21.943Z,7.60
2019-01-09T18:07:52.115Z,5.50
2019-01-09T18:10:21.662Z,3.40
2019-01-09T18:12:50.562Z,10.03
2019-01-09T18:17:57.643Z,11.23
2019-01-09T18:20:31.482Z,11.30
2019-01-09T18:26:10.827Z,15.23
2019-01-09T18:28:39.747Z,12.37
2019-01-09T18:31:31.635Z,8.53
2019-01-09T18:34:10.177Z,6.83
2019-01-09T18:36:47.511Z,9.63
2019-01-09T18:39:35.876Z,10.33
2019-01-09T18:42:12.008Z,12.07
2019-01-09T18:44:58.813Z,11.90
2019-01-09T18:47:59.188Z,13.63
2019-01-09T18:50:43.568Z,14.03
2019-01-09T18:53:16.317Z,18.63
2019-01-09T18:55:45.621Z,8.10
2019-01-09T18:58:14.912Z,10.67
2019-01-09T19:00:43.824Z,13.93
2019-01-09T19:03:16.176Z,11.70
2019-01-09T19:05:45.163Z,10.13
2019-01-09T19:08:14.214Z,13.07
2019-01-09T19:10:43.557Z,14.60
2019-01-09T19:13:13.428Z,11.30
2019-01-09T19:15:42.429Z,12.87
2019-01-09T19:18:11.298Z,10.23
2019-01-09T19:20:40.224Z,7.70
2019-01-09T19:23:09.494Z,15.43
2019-01-09T19:25:38.772Z,10.20
2019-01-09T19:28:07.736Z,13.47
2019-01-09T19:30:37.101Z,9.30
2019-01-09T19:33:06.332Z,7.90
2019-01-09T19:35:35.276Z,7.97
2019-01-09T19:38:04.648Z,11.83
2019-01-09T19:40:34.562Z,6.93
2019-01-09T19:43:03.843Z,9.50
2019-01-09T19:45:33.341Z,7.50
2019-01-09T19:48:02.257Z,9.00
2019-01-09T19:50:31.537Z,9.13
2019-01-09T19:53:00.557Z,9.37
2019-01-09T19:55:29.825Z,8.03
2019-01-09T19:57:58.751Z,13.80
2019-01-09T20:00:30.186Z,6.17
2019-01-09T20:02:59.176Z,6.73
2019-01-09T20:05:28.091Z,7.47
2019-01-09T20:08:05.343Z,10.30
2019-01-09T20:10:34.852Z,5.70
2019-01-09T20:13:03.848Z,11.10
2019-01-09T20:15:47.780Z,8.33
2019-01-09T20:18:16.975Z,10.97
2019-01-09T20:20:46.367Z,7.20
2019-01-09T20:23:18.950Z,8.20
2019-01-09T20:28:38.556Z,7.10
2019-01-09T20:31:07.492Z,9.73
2019-01-09T20:33:36.816Z,10.90
2019-01-09T20:36:05.811Z,8.33
2019-01-09T20:38:34.816Z,9.10
2019-01-09T20:41:06.789Z,8.30
2019-01-09T20:43:35.781Z,8.50
2019-01-09T20:46:05.224Z,5.00
2019-01-09T20:48:34.185Z,7.00
2019-01-09T20:54:27.905Z,12.90
2019-01-09T20:56:56.938Z,11.10
2019-01-09T20:59:25.975Z,3.47
2019-01-09T21:02:00.136Z,5.53
2019-01-09T21:04:29.376Z,8.97
2019-01-09T21:07:10.727Z,8.83
2019-01-09T21:09:39.746Z,6.67
2019-01-09T21:12:09.066Z,5.20
2019-01-09T21:14:37.949Z,12.80
2019-01-09T21:17:06.881Z,5.37
2019-01-09T21:19:35.717Z,6.07
2019-01-09T21:22:05.132Z,5.87
2019-01-09T21:24:34.079Z,11.10
2019-01-09T21:27:04.173Z,4.70
2019-01-09T21:29:33.539Z,8.73
2019-01-09T21:32:02.864Z,4.90
2019-01-09T21:34:32.143Z,4.10
2019-01-09T21:37:01.067Z,6.00
2019-01-09T21:39:29.948Z,8.10
2019-01-09T21:41:58.849Z,5.47
2019-01-09T21:44:27.776Z,5.57
2019-01-09T21:46:56.700Z,4.43
2019-01-09T21:49:25.652Z,6.70
2019-01-09T21:51:54.553Z,6.23
2019-01-09T21:54:23.454Z,8.90
2019-01-09T21:56:53.070Z,5.23
2019-01-09T21:59:23.375Z,10.00
2019-01-09T22:01:52.705Z,5.20
2019-01-09T22:04:21.591Z,5.40
2019-01-09T22:07:02.711Z,5.70
2019-01-09T22:09:31.611Z,10.53
2019-01-09T22:12:02.617Z,6.67
2019-01-09T22:14:31.429Z,6.07
2019-01-09T22:17:00.701Z,8.73
2019-01-09T22:19:29.603Z,6.97
2019-01-09T22:21:58.989Z,8.30
2019-01-09T22:24:28.255Z,10.47
2019-01-09T22:26:57.147Z,6.90
2019-01-09T22:29:26.075Z,7.73
2019-01-09T22:31:54.987Z,10.57
2019-01-09T22:34:23.846Z,7.80
2019-01-09T22:36:52.771Z,9.03
2019-01-09T22:39:22.096Z,10.53
2019-01-09T22:41:51.338Z,9.25
2019-01-09T22:44:20.272Z,9.13
2019-01-09T22:46:49.177Z,10.57
2019-01-09T22:49:18.467Z,11.03
2019-01-09T22:51:47.436Z,13.67
2019-01-09T22:54:16.719Z,11.40
2019-01-09T22:56:45.623Z,17.30
2019-01-09T22:59:14.600Z,14.17
2019-01-09T23:01:44.048Z,15.32
2019-01-09T23:04:13.289Z,13.40
2019-01-09T23:06:42.196Z,14.00
2019-01-09T23:09:11.902Z,12.93
2019-01-09T23:11:40.783Z,20.00
2019-01-09T23:14:18.733Z,14.33
2019-01-09T23:16:47.590Z,14.17
2019-01-09T23:19:16.878Z,14.20
2019-01-09T23:21:46.211Z,17.07
2019-01-09T23:24:15.651Z,15.00
2019-01-09T23:26:44.802Z,12.15
2019-01-09T23:29:13.828Z,14.90
2019-01-09T23:31:42.749Z,13.50
2019-01-09T23:34:11.748Z,17.30
2019-01-09T23:36:40.776Z,11.10
2019-01-09T23:39:10.163Z,13.57
2019-01-09T23:41:39.461Z,16.70
2019-01-09T23:44:08.792Z,15.07
2019-01-09T23:46:37.696Z,15.43
2019-01-09T23:49:06.605Z,10.18
2019-01-09T23:51:35.861Z,21.00
2019-01-09T23:54:05.031Z,11.67
2019-01-09T23:56:33.925Z,14.73
2019-01-09T23:59:02.847Z,14.33
